Time;durP1;ratioP1;P1;durP2;ratioP2;P2;SDS_P1;SDS_P2;PMS_P1;PMS_P2;Temp;Humidity;BMP_temperature;BMP_pressure;BME280_temperature;BME280_humidity;BME280_pressure;Samples;Min_cycle;Max_cycle;Signal;HPM_P1;HPM_P2
2023/03/14 00:00:34;;;;;;;9.88;1.80;;;;;;;;;;5029178;28;20500;-62
2023/03/14 00:02:59;;;;;;;8.20;1.70;;;;;;;;;;5029951;28;20083;-61
2023/03/14 00:05:25;;;;;;;4.55;1.33;;;;;;;;;;5029612;28;20049;-61
2023/03/14 00:07:50;;;;;;;7.57;1.85;;;;;;;;;;5031342;28;20506;-61
2023/03/14 00:10:16;;;;;;;6.25;1.70;;;;;;;;;;5032740;28;20057;-60
2023/03/14 00:12:42;;;;;;;4.00;1.40;;;;;;;;;;5035029;28;20030;-60
2023/03/14 00:15:08;;;;;;;7.35;1.55;;;;;;;;;;5032835;28;20036;-60
2023/03/14 00:17:35;;;;;;;6.47;1.90;;;;;;;;;;5035489;28;20099;-60
2023/03/14 00:20:07;;;;;;;6.45;1.70;;;;;;;;;;5032720;28;20059;-61
2023/03/14 00:22:37;;;;;;;3.65;1.33;;;;;;;;;;5033806;28;20041;-60
2023/03/14 00:25:05;;;;;;;3.35;1.25;;;;;;;;;;5024170;28;20064;-60
2023/03/14 00:27:31;;;;;;;8.05;1.75;;;;;;;;;;5033279;28;20033;-60
2023/03/14 00:29:56;;;;;;;5.40;1.30;;;;;;;;;;5035327;28;20041;-61
2023/03/14 00:32:21;;;;;;;4.35;1.40;;;;;;;;;;5015959;28;20033;-60
2023/03/14 00:34:47;;;;;;;7.82;1.77;;;;;;;;;;5034998;28;20529;-60
2023/03/14 00:37:13;;;;;;;3.70;1.58;;;;;;;;;;5015140;28;20081;-60
2023/03/14 00:39:38;;;;;;;3.83;1.45;;;;;;;;;;5032526;28;20155;-60
2023/03/14 00:42:03;;;;;;;6.30;1.63;;;;;;;;;;5034395;28;20033;-61
2023/03/14 00:44:29;;;;;;;7.97;1.80;;;;;;;;;;5029324;28;20129;-60
2023/03/14 00:46:55;;;;;;;8.15;1.80;;;;;;;;;;5015027;28;20496;-60
2023/03/14 00:49:20;;;;;;;3.58;1.45;;;;;;;;;;5024901;28;20041;-61
2023/03/14 00:51:45;;;;;;;6.95;1.70;;;;;;;;;;5016554;28;20031;-61
2023/03/14 00:54:11;;;;;;;6.40;1.45;;;;;;;;;;5032975;28;20033;-61
2023/03/14 00:56:36;;;;;;;2.88;1.27;;;;;;;;;;5027289;28;20049;-61
2023/03/14 00:59:01;;;;;;;7.13;1.70;;;;;;;;;;5031949;28;20030;-62
2023/03/14 01:01:27;;;;;;;8.93;1.60;;;;;;;;;;5033125;28;20367;-62
2023/03/14 01:03:53;;;;;;;6.22;1.65;;;;;;;;;;5031724;28;20117;-61
2023/03/14 01:06:23;;;;;;;7.43;1.88;;;;;;;;;;5033896;28;20493;-61
2023/03/14 01:08:48;;;;;;;5.43;1.73;;;;;;;;;;5033374;28;20474;-63
2023/03/14 01:11:17;;;;;;;2.67;1.10;;;;;;;;;;5030848;28;20041;-61
2023/03/14 01:13:43;;;;;;;9.50;1.20;;;;;;;;;;5018997;28;20029;-61
2023/03/14 01:16:10;;;;;;;6.68;1.30;;;;;;;;;;5032986;28;20083;-61
2023/03/14 01:18:37;;;;;;;8.57;1.88;;;;;;;;;;5032281;28;20407;-62
2023/03/14 01:21:16;;;;;;;5.75;1.60;;;;;;;;;;5030422;28;20041;-61
2023/03/14 01:23:42;;;;;;;7.22;1.48;;;;;;;;;;5033772;28;20079;-61
2023/03/14 01:26:10;;;;;;;4.30;1.23;;;;;;;;;;5018893;28;20032;-60
2023/03/14 01:28:35;;;;;;;5.47;1.55;;;;;;;;;;5036952;28;20035;-61
2023/03/14 01:31:10;;;;;;;7.70;1.40;;;;;;;;;;5014991;28;20026;-60
2023/03/14 01:33:36;;;;;;;4.90;1.20;;;;;;;;;;5032810;28;20115;-60
2023/03/14 01:36:02;;;;;;;2.33;1.10;;;;;;;;;;5033005;28;20072;-62
2023/03/14 01:38:32;;;;;;;4.60;1.15;;;;;;;;;;5031732;28;20029;-62
2023/03/14 01:40:58;;;;;;;4.90;1.17;;;;;;;;;;5030439;28;20029;-61
2023/03/14 01:43:27;;;;;;;3.30;0.80;;;;;;;;;;5030704;28;20466;-61
2023/03/14 01:46:27;;;;;;;4.13;1.27;;;;;;;;;;5032639;28;20053;-61
2023/03/14 01:48:58;;;;;;;2.67;1.00;;;;;;;;;;5031839;28;20049;-61
2023/03/14 01:51:29;;;;;;;2.88;0.98;;;;;;;;;;5032439;28;20034;-61
2023/03/14 01:54:04;;;;;;;2.88;1.00;;;;;;;;;;5032057;28;20041;-60
2023/03/14 01:56:30;;;;;;;5.25;1.50;;;;;;;;;;5030897;28;20459;-60
2023/03/14 01:58:56;;;;;;;3.38;1.00;;;;;;;;;;5030433;28;20470;-61
2023/03/14 02:01:25;;;;;;;5.55;0.90;;;;;;;;;;5031955;28;20033;-61
2023/03/14 02:03:54;;;;;;;4.22;1.20;;;;;;;;;;5031990;28;20145;-61
2023/03/14 02:06:24;;;;;;;3.20;1.15;;;;;;;;;;5031879;28;20041;-61
2023/03/14 02:08:50;;;;;;;4.80;1.17;;;;;;;;;;5031072;28;20111;-62
2023/03/14 02:11:17;;;;;;;2.22;1.10;;;;;;;;;;5031142;28;20033;-62
2023/03/14 02:13:43;;;;;;;3.70;1.15;;;;;;;;;;5030879;28;20110;-61
2023/03/14 02:16:09;;;;;;;7.85;1.58;;;;;;;;;;5034596;28;20044;-61
2023/03/14 02:18:34;;;;;;;5.93;1.30;;;;;;;;;;5032647;28;20240;-61
2023/03/14 02:21:22;;;;;;;3.92;0.93;;;;;;;;;;5031631;28;20057;-61
2023/03/14 02:24:06;;;;;;;7.25;1.70;;;;;;;;;;5019165;28;20048;-62
2023/03/14 02:26:47;;;;;;;4.07;1.10;;;;;;;;;;5030362;28;20140;-61
2023/03/14 02:29:12;;;;;;;;;;;;;;;;;;5000944;28;20038;-60
2023/03/14 02:31:38;;;;;;;5.05;1.05;;;;;;;;;;5030116;28;19924;-61
2023/03/14 02:34:04;;;;;;;9.10;1.50;;;;;;;;;;5014607;28;20466;-60
2023/03/14 02:36:30;;;;;;;7.22;1.35;;;;;;;;;;5012528;28;20045;-61
2023/03/14 02:39:16;;;;;;;6.25;1.05;;;;;;;;;;5029324;28;20042;-62
2023/03/14 02:41:42;;;;;;;5.97;1.33;;;;;;;;;;5030588;28;20457;-62
2023/03/14 02:44:08;;;;;;;6.28;1.00;;;;;;;;;;5031090;28;20030;-62
2023/03/14 02:46:34;;;;;;;3.85;1.23;;;;;;;;;;5031308;28;20040;-62
2023/03/14 02:49:10;;;;;;;5.22;1.30;;;;;;;;;;5029394;28;20057;-62
2023/03/14 02:51:36;;;;;;;3.00;1.10;;;;;;;;;;5029445;28;20671;-63
2023/03/14 02:54:01;;;;;;;1.88;0.80;;;;;;;;;;5029905;28;20071;-60
2023/03/14 02:56:27;;;;;;;3.20;1.42;;;;;;;;;;5029720;28;20053;-63
2023/03/14 02:58:52;;;;;;;3.83;1.15;;;;;;;;;;5030180;28;20057;-62
2023/03/14 03:01:18;;;;;;;4.45;1.30;;;;;;;;;;5030989;28;20033;-62
2023/03/14 03:03:43;;;;;;;3.83;1.52;;;;;;;;;;5028161;28;20061;-62
2023/03/14 03:06:09;;;;;;;2.55;0.70;;;;;;;;;;5031492;28;20049;-63
2023/03/14 03:08:34;;;;;;;3.50;0.90;;;;;;;;;;5029704;28;20033;-62
2023/03/14 03:11:00;;;;;;;9.15;1.30;;;;;;;;;;5029318;28;20382;-61
2023/03/14 03:13:26;;;;;;;4.40;1.50;;;;;;;;;;5029406;28;20478;-61
2023/03/14 03:15:52;;;;;;;4.63;0.98;;;;;;;;;;5030436;28;20060;-61
2023/03/14 03:18:17;;;;;;;5.25;1.45;;;;;;;;;;5031128;28;20096;-61
2023/03/14 03:20:43;;;;;;;3.20;1.35;;;;;;;;;;5030183;28;20060;-61
2023/03/14 03:23:08;;;;;;;3.13;1.27;;;;;;;;;;5014493;28;20026;-60
2023/03/14 03:25:33;;;;;;;8.00;1.67;;;;;;;;;;5009569;28;20067;-62
2023/03/14 03:27:59;;;;;;;4.18;1.08;;;;;;;;;;5031379;28;20040;-61
2023/03/14 03:30:25;;;;;;;7.50;1.55;;;;;;;;;;5029843;28;20041;-61
2023/03/14 03:32:50;;;;;;;5.60;1.35;;;;;;;;;;5030425;28;20378;-61
2023/03/14 03:35:15;;;;;;;5.93;1.85;;;;;;;;;;5029653;28;20120;-61
2023/03/14 03:37:41;;;;;;;5.03;1.15;;;;;;;;;;5031077;28;20514;-61
2023/03/14 03:40:08;;;;;;;5.90;1.50;;;;;;;;;;5025993;28;20025;-62
2023/03/14 03:42:34;;;;;;;6.47;1.55;;;;;;;;;;5028630;28;20030;-62
2023/03/14 03:45:00;;;;;;;6.05;2.05;;;;;;;;;;5029903;28;20041;-61
2023/03/14 03:47:27;;;;;;;6.35;1.27;;;;;;;;;;5030103;28;20069;-60
2023/03/14 03:49:53;;;;;;;6.10;1.30;;;;;;;;;;5029581;28;20115;-60
2023/03/14 03:52:18;;;;;;;7.05;1.48;;;;;;;;;;5032054;28;20462;-59
2023/03/14 03:54:44;;;;;;;6.45;1.15;;;;;;;;;;5028248;28;20040;-60
2023/03/14 03:57:09;;;;;;;4.57;1.30;;;;;;;;;;5030783;28;20095;-60
2023/03/14 03:59:35;;;;;;;5.03;1.30;;;;;;;;;;5028559;28;20037;-60
2023/03/14 04:02:00;;;;;;;5.03;1.88;;;;;;;;;;5030219;28;20067;-59
2023/03/14 04:04:26;;;;;;;6.75;1.50;;;;;;;;;;5028245;28;20421;-60
2023/03/14 04:06:51;;;;;;;4.57;1.17;;;;;;;;;;5031278;28;20108;-60
2023/03/14 04:09:16;;;;;;;5.85;1.35;;;;;;;;;;5008665;28;20072;-60
2023/03/14 04:11:42;;;;;;;8.05;1.45;;;;;;;;;;5014746;28;20615;-60
2023/03/14 04:14:08;;;;;;;4.43;1.25;;;;;;;;;;5029659;28;20025;-60
2023/03/14 04:16:33;;;;;;;2.30;1.08;;;;;;;;;;5025631;28;20541;-60
2023/03/14 04:19:00;;;;;;;5.97;1.30;;;;;;;;;;5029132;28;20482;-60
2023/03/14 04:21:25;;;;;;;5.40;1.30;;;;;;;;;;5029857;28;20033;-60
2023/03/14 04:23:50;;;;;;;4.07;1.33;;;;;;;;;;5029569;28;20124;-60
2023/03/14 04:26:16;;;;;;;4.00;1.45;;;;;;;;;;5028983;28;20065;-60
2023/03/14 04:28:42;;;;;;;8.55;1.85;;;;;;;;;;5028543;28;20697;-61
2023/03/14 04:31:09;;;;;;;4.60;1.50;;;;;;;;;;5029901;28;20422;-61
2023/03/14 04:33:35;;;;;;;5.55;1.75;;;;;;;;;;5027213;28;20426;-59
2023/03/14 04:36:01;;;;;;;5.82;1.52;;;;;;;;;;5025178;28;20033;-60
2023/03/14 04:38:26;;;;;;;4.57;1.48;;;;;;;;;;5046813;28;20037;-61
2023/03/14 04:40:52;;;;;;;7.40;1.63;;;;;;;;;;5034671;28;20033;-60
2023/03/14 04:43:17;;;;;;;4.72;1.55;;;;;;;;;;5031302;28;20030;-61
2023/03/14 04:45:42;;;;;;;5.22;1.73;;;;;;;;;;5029553;28;20080;-62
2023/03/14 04:48:08;;;;;;;2.92;1.17;;;;;;;;;;5031754;28;20037;-64
2023/03/14 04:50:34;;;;;;;1.67;1.13;;;;;;;;;;5012341;28;20485;-61
2023/03/14 04:52:59;;;;;;;1.75;0.65;;;;;;;;;;5031186;28;20029;-62
2023/03/14 04:55:25;;;;;;;2.92;0.93;;;;;;;;;;5031894;28;20488;-60
2023/03/14 04:57:50;;;;;;;2.97;1.00;;;;;;;;;;5033920;28;20041;-61
2023/03/14 05:00:18;;;;;;;3.08;1.02;;;;;;;;;;5035014;28;20388;-62
2023/03/14 05:02:44;;;;;;;2.22;0.70;;;;;;;;;;5032853;28;20053;-62
2023/03/14 05:05:09;;;;;;;4.32;0.90;;;;;;;;;;5034351;28;20072;-62
2023/03/14 05:07:35;;;;;;;1.45;0.98;;;;;;;;;;5033047;28;20029;-62
2023/03/14 05:10:00;;;;;;;1.85;0.60;;;;;;;;;;5016441;28;20113;-61
2023/03/14 05:12:25;;;;;;;1.20;0.80;;;;;;;;;;5033835;28;20028;-63
2023/03/14 05:14:51;;;;;;;6.20;0.60;;;;;;;;;;5034421;28;20076;-62
2023/03/14 05:17:17;;;;;;;1.40;0.90;;;;;;;;;;5034655;28;20132;-62
2023/03/14 05:19:43;;;;;;;3.22;0.77;;;;;;;;;;5032685;28;20061;-61
2023/03/14 05:22:08;;;;;;;3.85;1.00;;;;;;;;;;5035035;28;20068;-61
2023/03/14 05:24:34;;;;;;;3.53;0.65;;;;;;;;;;5032728;28;20022;-61
2023/03/14 05:26:59;;;;;;;3.58;0.77;;;;;;;;;;5034280;28;20448;-61
2023/03/14 05:29:24;;;;;;;2.15;0.98;;;;;;;;;;5033861;28;20026;-61
2023/03/14 05:31:50;;;;;;;5.50;1.15;;;;;;;;;;5033455;28;20030;-62
2023/03/14 05:34:21;;;;;;;1.98;1.20;;;;;;;;;;5035210;28;20044;-61
2023/03/14 05:37:10;;;;;;;5.53;2.50;;;;;;;;;;5019102;28;20029;-62
2023/03/14 05:39:36;;;;;;;3.53;1.45;;;;;;;;;;5029093;28;20037;-60
2023/03/14 05:42:01;;;;;;;3.13;1.00;;;;;;;;;;5034453;28;20051;-60
2023/03/14 05:44:27;;;;;;;1.65;0.95;;;;;;;;;;5032789;28;20382;-60
2023/03/14 05:46:52;;;;;;;1.67;1.00;;;;;;;;;;5033712;28;20030;-61
2023/03/14 05:49:17;;;;;;;3.10;1.27;;;;;;;;;;5041028;28;20029;-60
2023/03/14 05:51:43;;;;;;;4.07;1.20;;;;;;;;;;5053471;28;20040;-61
2023/03/14 05:54:08;;;;;;;4.00;1.10;;;;;;;;;;5033955;28;20037;-61
2023/03/14 05:56:34;;;;;;;6.68;1.30;;;;;;;;;;5032391;28;20039;-61
2023/03/14 05:59:02;;;;;;;2.85;1.10;;;;;;;;;;5030068;28;20075;-62
2023/03/14 06:01:27;;;;;;;2.15;1.00;;;;;;;;;;5004775;28;20580;-62
2023/03/14 06:03:53;;;;;;;2.88;1.30;;;;;;;;;;5033489;28;20041;-62
2023/03/14 06:06:18;;;;;;;4.97;1.30;;;;;;;;;;5033000;28;20080;-64
2023/03/14 06:08:43;;;;;;;2.97;1.30;;;;;;;;;;5030396;28;20034;-63
2023/03/14 06:11:09;;;;;;;1.88;1.38;;;;;;;;;;5013689;28;20041;-67
2023/03/14 06:13:35;;;;;;;3.58;1.40;;;;;;;;;;5032836;28;20033;-65
2023/03/14 06:16:00;;;;;;;4.10;1.67;;;;;;;;;;5031447;28;20041;-67
2023/03/14 06:18:25;;;;;;;5.13;1.80;;;;;;;;;;5032813;28;20040;-67
2023/03/14 06:20:54;;;;;;;4.03;1.80;;;;;;;;;;5017045;28;20492;-64
2023/03/14 06:23:19;;;;;;;4.65;2.10;;;;;;;;;;5018366;28;20026;-63
2023/03/14 06:25:44;;;;;;;7.60;2.80;;;;;;;;;;5030445;28;20042;-65
2023/03/14 06:28:10;;;;;;;6.93;3.10;;;;;;;;;;5012674;28;20033;-66
2023/03/14 06:30:35;;;;;;;5.90;3.00;;;;;;;;;;5031750;28;20037;-64
2023/03/14 06:33:01;;;;;;;5.03;2.80;;;;;;;;;;5030548;28;20029;-64
2023/03/14 06:35:26;;;;;;;8.90;3.20;;;;;;;;;;5030694;28;20033;-67
2023/03/14 06:37:52;;;;;;;7.25;2.90;;;;;;;;;;5030812;28;20076;-67
2023/03/14 06:40:18;;;;;;;10.50;3.58;;;;;;;;;;5031990;28;20044;-66
2023/03/14 06:42:44;;;;;;;7.30;3.25;;;;;;;;;;5031409;28;20030;-66
2023/03/14 06:45:10;;;;;;;8.95;3.65;;;;;;;;;;5030349;28;20041;-65
2023/03/14 06:47:35;;;;;;;6.63;3.03;;;;;;;;;;5014152;28;20528;-67
2023/03/14 06:50:01;;;;;;;9.10;3.42;;;;;;;;;;5028614;28;20409;-66
2023/03/14 06:52:26;;;;;;;8.15;3.42;;;;;;;;;;5032439;28;20033;-69
2023/03/14 06:54:51;;;;;;;14.20;3.40;;;;;;;;;;5029640;28;20152;-65
2023/03/14 06:57:17;;;;;;;8.50;3.10;;;;;;;;;;5032446;28;20021;-67
2023/03/14 06:59:42;;;;;;;5.85;2.85;;;;;;;;;;5013086;28;20538;-65
2023/03/14 07:02:12;;;;;;;6.78;2.65;;;;;;;;;;5032303;28;20513;-66
2023/03/14 07:04:38;;;;;;;6.80;2.33;;;;;;;;;;5029923;28;20037;-66
2023/03/14 07:07:03;;;;;;;9.05;3.38;;;;;;;;;;5032103;28;20025;-67
2023/03/14 07:09:29;;;;;;;5.28;2.55;;;;;;;;;;5031292;28;20029;-66
2023/03/14 07:11:54;;;;;;;4.70;2.20;;;;;;;;;;5031313;28;20036;-63
2023/03/14 07:14:19;;;;;;;4.10;2.15;;;;;;;;;;5029884;28;20030;-64
2023/03/14 07:16:45;;;;;;;4.38;2.30;;;;;;;;;;5030279;28;20363;-65
2023/03/14 07:19:10;;;;;;;8.95;3.03;;;;;;;;;;5030075;28;20040;-65
2023/03/14 07:21:36;;;;;;;4.80;2.20;;;;;;;;;;5030219;28;20033;-64
2023/03/14 07:24:01;;;;;;;4.57;1.40;;;;;;;;;;5031696;28;20025;-63
2023/03/14 07:26:27;;;;;;;3.55;1.75;;;;;;;;;;5031710;28;20037;-69
2023/03/14 07:28:52;;;;;;;4.90;1.83;;;;;;;;;;5029661;28;20029;-66
2023/03/14 07:31:18;;;;;;;3.50;1.63;;;;;;;;;;5031849;28;20052;-66
2023/03/14 07:33:43;;;;;;;2.55;1.50;;;;;;;;;;5028932;28;20114;-65
2023/03/14 07:36:09;;;;;;;1.98;1.50;;;;;;;;;;5031723;28;20419;-69
2023/03/14 07:38:34;;;;;;;2.38;1.50;;;;;;;;;;5030477;28;20032;-65
2023/03/14 07:41:01;;;;;;;1.02;0.93;;;;;;;;;;5031330;28;20033;-69
2023/03/14 07:43:26;;;;;;;2.60;1.20;;;;;;;;;;5031241;28;20034;-66
2023/03/14 07:45:52;;;;;;;2.78;1.45;;;;;;;;;;5031369;28;20051;-66
2023/03/14 07:48:18;;;;;;;3.33;1.48;;;;;;;;;;5029310;28;20493;-64
2023/03/14 07:50:43;;;;;;;3.30;1.70;;;;;;;;;;5030996;28;20026;-68
2023/03/14 07:53:09;;;;;;;4.30;1.73;;;;;;;;;;5030918;28;20372;-71
2023/03/14 07:55:34;;;;;;;1.85;1.33;;;;;;;;;;5030679;28;20033;-65
2023/03/14 07:58:00;;;;;;;3.33;1.80;;;;;;;;;;5030693;28;20051;-65
2023/03/14 08:00:25;;;;;;;2.05;1.27;;;;;;;;;;5030440;28;20045;-65
2023/03/14 08:02:51;;;;;;;3.25;1.70;;;;;;;;;;5029694;28;20094;-66
2023/03/14 08:05:16;;;;;;;1.95;1.25;;;;;;;;;;5027647;28;20041;-66
2023/03/14 08:07:41;;;;;;;1.65;1.27;;;;;;;;;;5030273;28;20029;-65
2023/03/14 08:10:08;;;;;;;2.75;1.65;;;;;;;;;;5030112;28;20033;-66
2023/03/14 08:12:33;;;;;;;2.10;1.58;;;;;;;;;;5031032;28;20057;-67
2023/03/14 08:14:59;;;;;;;5.30;1.70;;;;;;;;;;5030073;28;20478;-67
2023/03/14 08:17:24;;;;;;;2.00;1.63;;;;;;;;;;5013407;28;20022;-65
2023/03/14 08:19:50;;;;;;;2.72;1.55;;;;;;;;;;5030002;28;20064;-67
2023/03/14 08:22:15;;;;;;;3.00;1.80;;;;;;;;;;5013055;28;20103;-66
2023/03/14 08:24:41;;;;;;;3.13;1.48;;;;;;;;;;5028501;28;20072;-66
2023/03/14 08:27:06;;;;;;;3.55;1.67;;;;;;;;;;5028210;28;20056;-63
2023/03/14 08:29:32;;;;;;;2.70;2.00;;;;;;;;;;5025179;28;20038;-70
2023/03/14 08:31:57;;;;;;;4.65;1.80;;;;;;;;;;5033051;28;20029;-70
2023/03/14 08:34:22;;;;;;;5.22;2.80;;;;;;;;;;5031256;28;20489;-70
2023/03/14 08:36:48;;;;;;;4.50;2.92;;;;;;;;;;5032358;28;20033;-64
2023/03/14 08:39:13;;;;;;;7.40;3.47;;;;;;;;;;5032304;28;20033;-64
2023/03/14 08:41:41;;;;;;;5.43;3.20;;;;;;;;;;5034131;28;20128;-62
2023/03/14 08:44:11;;;;;;;5.20;3.10;;;;;;;;;;5034391;28;20029;-62
2023/03/14 08:46:36;;;;;;;6.70;3.88;;;;;;;;;;5034477;28;20112;-63
2023/03/14 08:49:03;;;;;;;6.72;3.78;;;;;;;;;;5032800;28;20029;-63
2023/03/14 08:51:28;;;;;;;9.73;3.40;;;;;;;;;;5034490;28;20109;-63
2023/03/14 08:53:53;;;;;;;6.80;3.70;;;;;;;;;;5033820;28;20108;-63
2023/03/14 08:56:19;;;;;;;4.78;3.03;;;;;;;;;;5034258;28;20036;-64
2023/03/14 08:58:44;;;;;;;6.50;4.20;;;;;;;;;;5031064;28;20045;-63
2023/03/14 09:01:10;;;;;;;6.03;4.07;;;;;;;;;;5034497;28;20457;-63
2023/03/14 09:03:36;;;;;;;5.50;3.50;;;;;;;;;;5033699;28;20397;-63
2023/03/14 09:06:07;;;;;;;5.93;3.83;;;;;;;;;;5034120;28;20108;-63
2023/03/14 09:08:33;;;;;;;6.65;4.20;;;;;;;;;;5034519;28;20030;-64
2023/03/14 09:10:59;;;;;;;7.32;4.07;;;;;;;;;;5033122;28;20033;-62
2023/03/14 09:13:24;;;;;;;7.25;4.47;;;;;;;;;;5034388;28;20040;-63
2023/03/14 09:15:51;;;;;;;6.63;4.43;;;;;;;;;;5031832;28;20043;-64
2023/03/14 09:18:16;;;;;;;7.57;4.65;;;;;;;;;;5034105;28;20037;-62
2023/03/14 09:20:42;;;;;;;7.72;5.00;;;;;;;;;;5033502;28;20098;-64
2023/03/14 09:23:07;;;;;;;10.02;6.15;;;;;;;;;;5033916;28;20029;-65
2023/03/14 09:25:32;;;;;;;10.50;6.43;;;;;;;;;;5034027;28;20417;-65
2023/03/14 09:27:58;;;;;;;11.95;7.45;;;;;;;;;;5032864;28;20017;-65
2023/03/14 09:30:23;;;;;;;9.52;6.05;;;;;;;;;;5028024;28;20025;-65
2023/03/14 09:32:48;;;;;;;3.88;1.80;;;;;;;;;;5029912;28;20500;-65
2023/03/14 09:35:14;;;;;;;1.33;1.08;;;;;;;;;;5014607;28;20029;-62
2023/03/14 09:37:39;;;;;;;1.52;1.00;;;;;;;;;;5033069;28;20489;-64
2023/03/14 09:40:10;;;;;;;3.75;1.10;;;;;;;;;;5033118;28;20175;-63
2023/03/14 09:42:38;;;;;;;1.38;1.10;;;;;;;;;;5033426;28;20021;-65
2023/03/14 09:45:06;;;;;;;1.95;0.88;;;;;;;;;;5032147;28;20052;-64
2023/03/14 09:47:33;;;;;;;1.65;1.10;;;;;;;;;;5032801;28;20033;-63
2023/03/14 09:50:01;;;;;;;2.38;1.30;;;;;;;;;;5030622;28;20033;-63
2023/03/14 09:52:33;;;;;;;1.58;1.00;;;;;;;;;;5033837;28;20030;-63
2023/03/14 09:55:02;;;;;;;1.67;0.98;;;;;;;;;;5031164;28;20107;-64
2023/03/14 09:57:35;;;;;;;1.10;0.90;;;;;;;;;;5015888;28;20496;-63
2023/03/14 10:00:13;;;;;;;2.80;1.27;;;;;;;;;;5030509;28;20091;-65
2023/03/14 10:02:41;;;;;;;3.65;1.23;;;;;;;;;;5032335;28;20497;-64
2023/03/14 10:05:18;;;;;;;2.47;1.33;;;;;;;;;;5030903;28;20041;-66
2023/03/14 10:07:44;;;;;;;1.83;1.50;;;;;;;;;;5032129;28;20026;-64
2023/03/14 10:10:13;;;;;;;2.08;1.50;;;;;;;;;;5042627;28;20029;-64
2023/03/14 10:12:39;;;;;;;2.08;1.30;;;;;;;;;;5033630;28;20029;-65
2023/03/14 10:15:08;;;;;;;1.80;1.00;;;;;;;;;;5031038;28;20043;-65
2023/03/14 10:17:47;;;;;;;1.13;0.88;;;;;;;;;;5033219;28;20029;-62
2023/03/14 10:20:35;;;;;;;1.05;0.88;;;;;;;;;;5031475;28;20092;-63
2023/03/14 10:23:12;;;;;;;1.63;0.80;;;;;;;;;;5032029;28;20594;-65
2023/03/14 10:25:40;;;;;;;1.30;0.88;;;;;;;;;;5030618;28;20478;-65
2023/03/14 10:28:24;;;;;;;1.77;1.08;;;;;;;;;;5011733;28;20490;-63
2023/03/14 10:30:53;;;;;;;2.78;1.17;;;;;;;;;;5031664;28;20033;-63
2023/03/14 10:33:29;;;;;;;2.10;1.20;;;;;;;;;;5031541;28;20037;-64
2023/03/14 10:36:00;;;;;;;1.35;1.10;;;;;;;;;;5030197;28;20037;-64
2023/03/14 10:38:28;;;;;;;1.70;1.17;;;;;;;;;;5035653;28;20087;-66
2023/03/14 10:40:56;;;;;;;2.22;1.40;;;;;;;;;;5031742;28;20034;-65
2023/03/14 10:43:35;;;;;;;1.10;1.00;;;;;;;;;;5031242;28;20038;-62
2023/03/14 10:46:08;;;;;;;4.32;0.80;;;;;;;;;;5030015;28;20473;-63
2023/03/14 10:48:40;;;;;;;1.10;0.90;;;;;;;;;;5036977;28;20109;-63
2023/03/14 10:51:17;;;;;;;1.95;1.38;;;;;;;;;;5029361;28;20052;-64
2023/03/14 10:53:55;;;;;;;2.13;1.40;;;;;;;;;;5030301;28;20037;-63
2023/03/14 10:56:22;;;;;;;3.08;1.67;;;;;;;;;;5006707;28;20073;-68
2023/03/14 10:58:55;;;;;;;2.33;1.60;;;;;;;;;;5041719;28;20466;-65
2023/03/14 11:01:34;;;;;;;2.08;1.00;;;;;;;;;;5041675;28;20053;-67
2023/03/14 11:04:02;;;;;;;5.22;1.20;;;;;;;;;;5033728;28;20112;-65
2023/03/14 11:06:52;;;;;;;2.95;1.10;;;;;;;;;;5031027;28;20029;-66
2023/03/14 11:09:44;;;;;;;2.97;1.10;;;;;;;;;;5031467;28;20037;-65
2023/03/14 11:12:28;;;;;;;1.42;1.00;;;;;;;;;;5020292;28;20045;-67
2023/03/14 11:15:12;;;;;;;1.65;1.10;;;;;;;;;;5024363;28;20040;-66
2023/03/14 11:18:14;;;;;;;1.77;1.35;;;;;;;;;;5023652;28;20045;-67
2023/03/14 11:21:01;;;;;;;2.10;0.95;;;;;;;;;;5020630;28;20040;-66
2023/03/14 11:23:38;;;;;;;4.60;1.40;;;;;;;;;;5031880;28;20037;-67
2023/03/14 11:26:25;;;;;;;2.78;1.02;;;;;;;;;;5026937;28;20857;-69
2023/03/14 11:28:58;;;;;;;2.30;1.00;;;;;;;;;;5028437;28;20114;-70
2023/03/14 11:31:29;;;;;;;0.98;0.90;;;;;;;;;;5031585;28;20382;-69
2023/03/14 11:34:09;;;;;;;2.78;1.08;;;;;;;;;;5029330;28;20508;-67
2023/03/14 11:36:39;;;;;;;1.03;0.90;;;;;;;;;;5029145;28;20040;-64
2023/03/14 11:39:13;;;;;;;2.15;0.98;;;;;;;;;;5029084;28;20277;-66
2023/03/14 11:41:45;;;;;;;1.27;0.90;;;;;;;;;;5027483;28;20466;-64
2023/03/14 11:44:32;;;;;;;1.35;1.08;;;;;;;;;;5030877;28;20029;-63
2023/03/14 11:47:34;;;;;;;2.47;0.93;;;;;;;;;;5027661;28;20021;-64
2023/03/14 11:50:07;;;;;;;1.17;0.88;;;;;;;;;;4991696;28;20401;-70
2023/03/14 11:52:37;;;;;;;2.72;1.10;;;;;;;;;;5031418;28;20351;-64
2023/03/14 11:55:11;;;;;;;1.40;1.00;;;;;;;;;;5030995;28;20387;-64
2023/03/14 11:57:39;;;;;;;2.92;1.25;;;;;;;;;;5020741;28;20420;-64
2023/03/14 12:00:22;;;;;;;1.10;1.00;;;;;;;;;;5028695;28;20042;-62
2023/03/14 12:03:04;;;;;;;1.65;1.10;;;;;;;;;;5027608;28;20087;-65
2023/03/14 12:05:58;;;;;;;1.92;1.13;;;;;;;;;;5029536;28;20095;-64
2023/03/14 12:09:00;;;;;;;3.63;1.35;;;;;;;;;;5030335;28;20466;-62
2023/03/14 12:11:40;;;;;;;3.42;1.40;;;;;;;;;;4942443;28;20543;-63
2023/03/14 12:14:22;;;;;;;7.25;2.63;;;;;;;;;;4989353;28;20042;-61
2023/03/14 12:16:48;;;;;;;2.25;1.23;;;;;;;;;;5030171;28;20049;-63
2023/03/14 12:19:40;;;;;;;13.38;4.85;;;;;;;;;;5013064;28;20381;-64
2023/03/14 12:22:26;;;;;;;2.08;1.20;;;;;;;;;;5036108;28;20772;-63
2023/03/14 12:25:14;;;;;;;3.58;1.25;;;;;;;;;;5029504;28;20042;-65
2023/03/14 12:27:41;;;;;;;4.22;1.50;;;;;;;;;;5021954;28;20489;-63
2023/03/14 12:30:37;;;;;;;4.00;1.45;;;;;;;;;;5030219;28;20233;-63
2023/03/14 12:33:09;;;;;;;8.27;1.42;;;;;;;;;;5034285;28;20124;-64
2023/03/14 12:35:51;;;;;;;5.97;1.60;;;;;;;;;;5029394;28;20033;-66
2023/03/14 12:38:53;;;;;;;6.70;1.40;;;;;;;;;;5029560;28;20429;-64
2023/03/14 12:41:29;;;;;;;4.13;1.20;;;;;;;;;;5023492;28;20087;-64
2023/03/14 12:43:54;;;;;;;4.03;1.17;;;;;;;;;;5021727;28;20064;-63
2023/03/14 12:46:22;;;;;;;5.07;1.25;;;;;;;;;;5030079;28;20111;-64
2023/03/14 12:48:51;;;;;;;6.75;1.35;;;;;;;;;;5028226;28;20075;-62
2023/03/14 12:51:29;;;;;;;7.95;1.27;;;;;;;;;;5029825;28;20025;-62
2023/03/14 12:54:09;;;;;;;5.32;1.52;;;;;;;;;;5030018;28;20474;-63
2023/03/14 12:56:44;;;;;;;3.90;1.50;;;;;;;;;;5025465;28;20037;-65
2023/03/14 12:59:32;;;;;;;11.20;1.83;;;;;;;;;;5029142;28;20026;-66
2023/03/14 13:02:15;;;;;;;10.48;2.47;;;;;;;;;;5029657;28;20034;-65
2023/03/14 13:04:47;;;;;;;3.97;1.70;;;;;;;;;;5012814;28;20025;-65
2023/03/14 13:07:24;;;;;;;6.07;1.67;;;;;;;;;;5011552;28;20033;-68
2023/03/14 13:09:54;;;;;;;11.45;1.83;;;;;;;;;;5030142;28;20112;-68
2023/03/14 13:12:27;;;;;;;7.85;1.65;;;;;;;;;;5009839;28;20065;-68
2023/03/14 13:14:53;;;;;;;8.27;1.48;;;;;;;;;;5029081;28;20033;-62
2023/03/14 13:17:30;;;;;;;10.43;2.53;;;;;;;;;;5033015;28;20389;-65
2023/03/14 13:20:00;;;;;;;6.38;1.63;;;;;;;;;;5028148;28;20044;-63
2023/03/14 13:22:29;;;;;;;10.05;1.80;;;;;;;;;;5033354;28;20088;-64
2023/03/14 13:25:07;;;;;;;9.30;1.50;;;;;;;;;;5033054;28;20017;-65
2023/03/14 13:27:34;;;;;;;4.68;1.15;;;;;;;;;;5030273;28;20029;-64
2023/03/14 13:30:26;;;;;;;8.95;2.00;;;;;;;;;;5033016;28;20359;-63
2023/03/14 13:32:53;;;;;;;11.32;2.08;;;;;;;;;;5035471;28;20043;-65
2023/03/14 13:35:37;;;;;;;17.40;2.38;;;;;;;;;;5033357;28;20037;-65
2023/03/14 13:38:02;;;;;;;12.57;2.10;;;;;;;;;;5042501;28;20464;-63
2023/03/14 13:40:33;;;;;;;13.63;2.33;;;;;;;;;;5033985;28;20068;-65
2023/03/14 13:43:19;;;;;;;11.85;2.05;;;;;;;;;;5030849;28;20367;-64
2023/03/14 13:45:55;;;;;;;10.30;2.22;;;;;;;;;;5017822;28;20053;-63
2023/03/14 13:48:25;;;;;;;14.02;2.88;;;;;;;;;;5023300;28;20118;-64
2023/03/14 13:50:58;;;;;;;12.55;2.22;;;;;;;;;;5031998;28;20050;-63
2023/03/14 13:53:24;;;;;;;19.40;3.72;;;;;;;;;;5030745;28;20029;-65
2023/03/14 13:55:50;;;;;;;15.73;2.83;;;;;;;;;;5032321;28;20395;-67
2023/03/14 13:58:21;;;;;;;11.13;2.55;;;;;;;;;;5031896;28;20034;-66
2023/03/14 14:00:54;;;;;;;;;;;;;;;;;;5033706;28;20037;-64
2023/03/14 14:03:20;;;;;;;9.38;2.08;;;;;;;;;;5030231;28;19917;-66
2023/03/14 14:05:45;;;;;;;17.73;2.83;;;;;;;;;;5033380;28;20039;-64
2023/03/14 14:08:12;;;;;;;16.65;2.40;;;;;;;;;;5032233;28;20041;-66
2023/03/14 14:10:38;;;;;;;10.05;1.90;;;;;;;;;;5033211;28;20029;-65
2023/03/14 14:13:08;;;;;;;5.15;1.52;;;;;;;;;;5031140;28;20033;-67
2023/03/14 14:15:39;;;;;;;14.30;2.10;;;;;;;;;;5032705;28;20040;-69
2023/03/14 14:18:08;;;;;;;15.45;2.30;;;;;;;;;;5030012;28;20044;-67
2023/03/14 14:20:37;;;;;;;8.95;1.83;;;;;;;;;;5029126;28;20065;-71
2023/03/14 14:23:05;;;;;;;8.35;1.65;;;;;;;;;;5030522;28;20045;-69
2023/03/14 14:25:31;;;;;;;11.50;2.05;;;;;;;;;;5014434;28;20034;-67
2023/03/14 14:27:56;;;;;;;8.65;1.92;;;;;;;;;;5030261;28;20025;-65
2023/03/14 14:30:27;;;;;;;5.18;1.65;;;;;;;;;;5030715;28;20125;-65
2023/03/14 14:32:52;;;;;;;9.40;1.85;;;;;;;;;;5032802;28;20492;-66
2023/03/14 14:35:35;;;;;;;9.10;1.73;;;;;;;;;;5032189;28;20053;-66
2023/03/14 14:38:01;;;;;;;9.40;1.80;;;;;;;;;;5028556;28;20030;-65
2023/03/14 14:40:29;;;;;;;7.70;1.90;;;;;;;;;;5010855;28;20029;-64
2023/03/14 14:43:01;;;;;;;9.43;1.88;;;;;;;;;;5032227;28;20061;-64
2023/03/14 14:45:27;;;;;;;6.43;1.52;;;;;;;;;;5031596;28;20061;-62
2023/03/14 14:47:53;;;;;;;9.20;1.60;;;;;;;;;;5030197;28;20058;-65
2023/03/14 14:50:33;;;;;;;6.35;1.50;;;;;;;;;;5030961;28;20033;-64
2023/03/14 14:53:17;;;;;;;6.38;1.75;;;;;;;;;;5028491;28;20108;-65
2023/03/14 14:55:42;;;;;;;4.03;1.25;;;;;;;;;;5031973;28;20030;-64